Time;durP1;ratioP1;P1;durP2;ratioP2;P2;SDS_P1;SDS_P2;PMS_P1;PMS_P2;Temp;Humidity;BMP_temperature;BMP_pressure;BME280_temperature;BME280_humidity;BME280_pressure;Samples;Min_cycle;Max_cycle;Signal;HPM_P1;HPM_P2
2023/05/08 00:02:00;;;;;;;30.95;23.45;;;15.20;99.90;;;;;;5055421;28;20529;-59
2023/05/08 00:04:25;;;;;;;31.58;24.50;;;15.10;99.90;;;;;;5054921;28;20510;-59
2023/05/08 00:06:51;;;;;;;31.20;25.48;;;15.10;99.90;;;;;;5055006;28;20175;-59
2023/05/08 00:09:18;;;;;;;34.80;25.95;;;15.10;99.90;;;;;;5054795;28;20195;-59
2023/05/08 00:11:44;;;;;;;32.65;26.00;;;15.10;99.90;;;;;;5055273;28;20524;-59
2023/05/08 00:14:10;;;;;;;35.40;26.40;;;15.00;99.90;;;;;;5054977;28;20180;-58
2023/05/08 00:16:36;;;;;;;34.20;24.95;;;15.00;99.90;;;;;;5054871;28;20172;-59
2023/05/08 00:19:02;;;;;;;35.30;26.20;;;15.00;99.90;;;;;;5054765;28;20176;-59
2023/05/08 00:21:27;;;;;;;32.63;25.55;;;15.00;99.90;;;;;;5054623;28;20641;-59
2023/05/08 00:23:53;;;;;;;36.17;26.92;;;14.90;99.90;;;;;;5054346;28;20628;-58
2023/05/08 00:26:20;;;;;;;37.13;27.77;;;14.80;99.90;;;;;;5054529;28;20715;-60
2023/05/08 00:28:46;;;;;;;37.60;28.38;;;14.70;99.90;;;;;;5054736;28;20264;-60
2023/05/08 00:31:12;;;;;;;37.10;27.67;;;14.70;99.90;;;;;;5054541;28;20179;-60
2023/05/08 00:33:38;;;;;;;38.90;29.10;;;14.70;99.90;;;;;;5054476;28;20167;-60
2023/05/08 00:36:05;;;;;;;36.88;29.13;;;14.70;99.90;;;;;;5054389;28;20189;-61
2023/05/08 00:38:32;;;;;;;42.72;31.08;;;14.70;99.90;;;;;;5054243;28;20198;-60
2023/05/08 00:40:57;;;;;;;45.08;31.83;;;14.70;99.90;;;;;;5054268;28;20525;-58
2023/05/08 00:43:26;;;;;;;41.50;31.65;;;14.80;99.90;;;;;;5054198;28;20183;-58
2023/05/08 00:45:58;;;;;;;44.20;32.08;;;14.80;99.90;;;;;;5054131;28;20636;-61
2023/05/08 00:48:27;;;;;;;41.83;31.50;;;14.70;99.90;;;;;;5053908;28;20287;-58
2023/05/08 00:50:54;;;;;;;40.90;30.90;;;14.70;99.90;;;;;;5053990;28;20301;-59
2023/05/08 00:53:21;;;;;;;39.70;27.98;;;14.70;99.90;;;;;;5054243;28;20179;-60
2023/05/08 00:55:50;;;;;;;41.33;30.48;;;14.70;99.90;;;;;;5054158;28;20179;-59
2023/05/08 00:58:15;;;;;;;39.80;30.00;;;14.70;99.90;;;;;;5054003;28;20176;-59
2023/05/08 01:00:43;;;;;;;41.28;31.02;;;14.60;99.90;;;;;;5053950;28;20187;-59
2023/05/08 01:03:10;;;;;;;46.50;32.17;;;14.60;99.90;;;;;;5053921;28;20575;-59
2023/05/08 01:05:37;;;;;;;35.88;27.60;;;14.70;99.90;;;;;;5053662;28;20191;-60
2023/05/08 01:08:02;;;;;;;42.47;31.10;;;14.70;99.90;;;;;;5053829;28;20221;-60
2023/05/08 01:10:39;;;;;;;44.88;30.63;;;14.70;99.90;;;;;;5053642;28;20175;-60
2023/05/08 01:13:17;;;;;;;44.00;31.25;;;14.80;99.90;;;;;;5053817;28;20731;-60
2023/05/08 01:15:49;;;;;;;40.72;31.45;;;14.80;99.90;;;;;;5053653;28;20573;-60
2023/05/08 01:18:24;;;;;;;38.33;29.17;;;14.80;99.90;;;;;;5052765;28;20593;-59
2023/05/08 01:21:00;;;;;;;40.53;30.20;;;14.70;99.90;;;;;;5053700;28;20166;-59
2023/05/08 01:23:46;;;;;;;41.60;30.38;;;14.70;99.90;;;;;;5053666;28;20633;-59
2023/05/08 01:26:30;;;;;;;42.13;30.75;;;14.60;99.90;;;;;;5053476;28;20167;-60
2023/05/08 01:29:28;;;;;;;43.22;31.02;;;14.60;99.90;;;;;;5053520;28;20202;-60
2023/05/08 01:32:12;;;;;;;46.38;32.08;;;14.70;99.90;;;;;;5053475;28;20170;-59
2023/05/08 01:35:02;;;;;;;47.17;31.42;;;14.60;99.90;;;;;;5052721;28;20174;-59
2023/05/08 01:37:55;;;;;;;42.45;32.47;;;14.60;99.90;;;;;;5053283;28;20313;-59
2023/05/08 01:40:35;;;;;;;43.35;31.75;;;14.60;99.90;;;;;;5045724;28;20187;-59
2023/05/08 01:43:30;;;;;;;37.42;29.30;;;14.60;99.90;;;;;;5053199;28;20225;-59
2023/05/08 01:45:58;;;;;;;44.40;31.65;;;14.50;99.90;;;;;;5052097;28;20529;-59
2023/05/08 01:48:33;;;;;;;43.65;31.48;;;14.50;99.90;;;;;;5052931;28;20254;-59
2023/05/08 01:51:07;;;;;;;44.60;31.70;;;14.30;99.90;;;;;;5051847;28;20175;-59
2023/05/08 01:53:41;;;;;;;46.20;31.35;;;14.20;99.90;;;;;;5053073;28;20188;-60
2023/05/08 01:56:17;;;;;;;45.33;32.03;;;14.20;99.90;;;;;;5053113;28;20166;-59
2023/05/08 01:58:44;;;;;;;40.92;29.90;;;14.20;99.90;;;;;;5053034;28;20564;-59
2023/05/08 02:01:13;;;;;;;42.60;31.27;;;14.20;99.90;;;;;;5053027;28;20178;-59
2023/05/08 02:03:41;;;;;;;42.85;32.13;;;14.10;99.90;;;;;;5053096;28;20175;-59
2023/05/08 02:06:08;;;;;;;38.08;30.27;;;14.10;99.90;;;;;;5052867;28;20171;-59
2023/05/08 02:08:36;;;;;;;41.38;31.08;;;14.10;99.90;;;;;;5053079;28;20572;-59
2023/05/08 02:11:04;;;;;;;38.72;29.73;;;14.10;99.90;;;;;;5052977;28;20190;-59
2023/05/08 02:13:32;;;;;;;42.08;29.45;;;14.10;99.90;;;;;;5053031;28;20175;-59
2023/05/08 02:16:00;;;;;;;39.33;30.55;;;14.00;99.90;;;;;;5053179;28;20179;-59
2023/05/08 02:18:28;;;;;;;37.17;29.08;;;14.00;99.90;;;;;;5052851;28;20174;-59
2023/05/08 02:20:55;;;;;;;44.33;32.65;;;14.00;99.90;;;;;;5052824;28;20516;-59
2023/05/08 02:23:24;;;;;;;41.38;30.13;;;13.90;99.90;;;;;;5052970;28;20300;-59
2023/05/08 02:25:51;;;;;;;39.95;31.10;;;13.90;99.90;;;;;;5052887;28;20201;-59
2023/05/08 02:28:18;;;;;;;41.35;29.92;;;14.00;99.90;;;;;;5051573;28;20211;-59
2023/05/08 02:30:44;;;;;;;38.15;29.50;;;14.00;99.90;;;;;;5052773;28;20190;-59
2023/05/08 02:33:12;;;;;;;37.75;28.80;;;14.00;99.90;;;;;;5052698;28;20168;-59
2023/05/08 02:35:40;;;;;;;39.83;29.90;;;14.00;99.90;;;;;;5052875;28;20180;-59
2023/05/08 02:38:09;;;;;;;43.83;31.73;;;14.00;99.90;;;;;;5052847;28;20263;-59
2023/05/08 02:40:37;;;;;;;45.15;31.38;;;14.00;99.90;;;;;;5052675;28;20221;-59
2023/05/08 02:43:04;;;;;;;40.85;30.83;;;13.90;99.90;;;;;;5053112;28;20174;-59
2023/05/08 02:45:38;;;;;;;38.90;29.90;;;13.90;99.90;;;;;;5052560;28;20308;-60
2023/05/08 02:48:09;;;;;;;41.10;30.13;;;13.90;99.90;;;;;;5055598;28;20225;-59
2023/05/08 02:50:43;;;;;;;39.30;29.08;;;13.90;99.90;;;;;;5056507;28;20179;-59
2023/05/08 02:53:14;;;;;;;44.47;30.20;;;14.00;99.90;;;;;;5056459;28;20175;-59
2023/05/08 02:55:49;;;;;;;43.85;31.73;;;14.00;99.90;;;;;;5056383;28;20163;-59
2023/05/08 02:58:28;;;;;;;38.90;30.05;;;14.10;99.90;;;;;;5056154;28;20220;-59
2023/05/08 03:01:08;;;;;;;43.40;31.95;;;14.10;99.90;;;;;;5056216;28;20172;-59
2023/05/08 03:03:45;;;;;;;43.17;32.45;;;14.10;99.90;;;;;;5056313;28;20167;-59
2023/05/08 03:06:13;;;;;;;42.03;31.67;;;14.10;99.90;;;;;;5056156;28;20261;-59
2023/05/08 03:08:41;;;;;;;82.18;29.70;;;14.10;99.90;;;;;;5055962;28;20187;-59
2023/05/08 03:11:16;;;;;;;38.00;29.38;;;14.20;99.90;;;;;;5056193;28;20175;-59
2023/05/08 03:13:45;;;;;;;78.45;29.98;;;14.20;99.90;;;;;;5056072;28;20178;-58
2023/05/08 03:16:19;;;;;;;36.33;28.08;;;14.20;99.90;;;;;;5055879;28;20171;-59
2023/05/08 03:19:09;;;;;;;35.53;29.08;;;14.20;99.90;;;;;;5055809;28;20280;-58
2023/05/08 03:21:37;;;;;;;38.38;28.65;;;14.20;99.90;;;;;;5056023;28;20170;-58
2023/05/08 03:24:06;;;;;;;34.83;27.63;;;14.20;99.90;;;;;;5055767;28;20671;-59
2023/05/08 03:26:32;;;;;;;32.08;25.55;;;14.20;99.90;;;;;;5055595;28;20710;-59
2023/05/08 03:28:58;;;;;;;33.05;25.60;;;14.20;99.90;;;;;;5055527;28;20199;-59
2023/05/08 03:31:25;;;;;;;72.95;24.73;;;14.10;99.90;;;;;;5055852;28;20179;-58
2023/05/08 03:33:54;;;;;;;34.78;24.45;;;14.10;99.90;;;;;;5055730;28;20205;-59
2023/05/08 03:36:21;;;;;;;44.05;22.92;;;14.10;99.90;;;;;;5055499;28;20641;-58
2023/05/08 03:38:47;;;;;;;33.00;24.45;;;14.00;99.90;;;;;;5055613;28;20233;-59
2023/05/08 03:41:13;;;;;;;32.30;24.95;;;14.00;99.90;;;;;;5055664;28;20171;-59
2023/05/08 03:43:40;;;;;;;32.05;24.63;;;14.00;99.90;;;;;;5055438;28;20262;-59
2023/05/08 03:46:06;;;;;;;29.83;23.98;;;14.00;99.90;;;;;;5055328;28;20184;-58
2023/05/08 03:48:33;;;;;;;33.42;24.48;;;14.00;99.90;;;;;;5055447;28;20692;-59
2023/05/08 03:51:01;;;;;;;35.33;25.17;;;14.00;99.90;;;;;;5055426;28;20168;-59
2023/05/08 03:53:29;;;;;;;31.77;24.48;;;13.90;99.90;;;;;;5055259;28;20175;-59
2023/05/08 03:55:57;;;;;;;26.13;20.73;;;14.00;99.90;;;;;;5055153;28;20533;-59
2023/05/08 03:58:37;;;;;;;29.40;21.27;;;14.00;99.90;;;;;;5053517;28;20198;-59
2023/05/08 04:01:10;;;;;;;30.23;22.17;;;14.00;99.90;;;;;;5055630;28;20241;-58
2023/05/08 04:03:36;;;;;;;40.88;21.52;;;13.90;99.90;;;;;;5055259;28;20180;-59
2023/05/08 04:06:15;;;;;;;27.90;22.02;;;13.90;99.90;;;;;;5055092;28;20178;-58
2023/05/08 04:08:48;;;;;;;32.95;24.10;;;13.90;99.90;;;;;;5054982;28;20199;-59
2023/05/08 04:11:32;;;;;;;28.05;21.98;;;13.90;99.90;;;;;;5054888;28;20265;-59
2023/05/08 04:14:03;;;;;;;33.30;24.35;;;13.80;99.90;;;;;;5054922;28;20556;-59
2023/05/08 04:16:38;;;;;;;31.67;24.33;;;13.80;99.90;;;;;;5054998;28;20167;-59
2023/05/08 04:19:09;;;;;;;31.83;25.00;;;13.80;99.90;;;;;;5054930;28;20171;-59
2023/05/08 04:21:38;;;;;;;36.00;25.40;;;13.80;99.90;;;;;;5054663;28;20182;-60
2023/05/08 04:24:07;;;;;;;46.63;24.83;;;13.90;99.90;;;;;;5054829;28;20525;-60
2023/05/08 04:26:33;;;;;;;36.33;26.02;;;13.90;99.90;;;;;;5054744;28;20175;-60
2023/05/08 04:28:59;;;;;;;30.35;23.73;;;13.90;99.90;;;;;;5054623;28;20194;-60
2023/05/08 04:31:26;;;;;;;36.65;25.48;;;13.90;99.90;;;;;;5054597;28;20572;-60
2023/05/08 04:33:53;;;;;;;33.67;26.30;;;13.90;99.90;;;;;;5054435;28;20175;-59
2023/05/08 04:36:18;;;;;;;34.00;25.40;;;13.90;99.90;;;;;;5054348;28;20178;-59
2023/05/08 04:38:44;;;;;;;37.33;26.17;;;13.90;99.90;;;;;;5054383;28;20571;-59
2023/05/08 04:41:09;;;;;;;41.10;25.85;;;14.00;99.90;;;;;;5054370;28;20183;-59
2023/05/08 04:43:35;;;;;;;89.78;25.92;;;13.90;99.90;;;;;;5054405;28;20175;-59
2023/05/08 04:46:03;;;;;;;33.38;25.90;;;14.00;99.90;;;;;;5054282;28;20695;-60
2023/05/08 04:48:31;;;;;;;34.65;26.20;;;14.00;99.90;;;;;;5053139;28;20253;-60
2023/05/08 04:50:57;;;;;;;33.13;26.20;;;14.00;99.90;;;;;;5054135;28;20190;-59
2023/05/08 04:53:23;;;;;;;37.55;27.52;;;14.00;99.90;;;;;;5053740;28;20180;-59
2023/05/08 04:55:48;;;;;;;38.53;27.20;;;14.00;99.90;;;;;;5054172;28;20176;-59
2023/05/08 04:58:14;;;;;;;41.83;26.52;;;14.00;99.90;;;;;;5053754;28;20179;-59
2023/05/08 05:00:39;;;;;;;48.53;27.25;;;14.00;99.90;;;;;;5053907;28;20224;-59
2023/05/08 05:03:05;;;;;;;53.38;27.45;;;14.00;99.90;;;;;;5053588;28;20226;-59
2023/05/08 05:05:31;;;;;;;39.60;27.20;;;14.00;99.90;;;;;;5054051;28;20284;-62
2023/05/08 05:07:56;;;;;;;41.30;27.30;;;14.00;99.90;;;;;;5054213;28;20636;-59
2023/05/08 05:10:22;;;;;;;42.53;26.70;;;14.00;99.90;;;;;;5052968;28;20682;-59
2023/05/08 05:12:48;;;;;;;45.83;28.75;;;14.00;99.90;;;;;;5053848;28;20171;-59
2023/05/08 05:15:13;;;;;;;46.08;29.58;;;14.00;99.90;;;;;;5053682;28;20217;-59
2023/05/08 05:17:39;;;;;;;47.20;29.88;;;14.00;99.90;;;;;;5053543;28;20182;-59
2023/05/08 05:20:07;;;;;;;50.38;30.90;;;14.00;99.90;;;;;;5053555;28;20667;-59
2023/05/08 05:22:33;;;;;;;71.47;30.58;;;14.00;99.90;;;;;;5053833;28;20171;-59
2023/05/08 05:24:58;;;;;;;63.53;32.20;;;14.10;99.90;;;;;;5053683;28;20186;-59
2023/05/08 05:27:24;;;;;;;57.67;35.22;;;14.10;99.90;;;;;;5053426;28;20176;-59
2023/05/08 05:29:50;;;;;;;57.38;33.33;;;14.10;99.90;;;;;;5053358;28;20288;-59
2023/05/08 05:32:15;;;;;;;66.72;37.75;;;14.10;99.90;;;;;;5052475;28;20225;-59
2023/05/08 05:34:41;;;;;;;72.15;40.55;;;14.10;99.90;;;;;;5053015;28;20176;-59
2023/05/08 05:37:07;;;;;;;75.28;41.42;;;14.10;99.90;;;;;;5053040;28;20184;-59
2023/05/08 05:39:32;;;;;;;146.73;44.17;;;14.10;99.90;;;;;;5053231;28;20182;-59
2023/05/08 05:41:58;;;;;;;89.15;47.58;;;14.10;99.90;;;;;;5053346;28;20629;-59
2023/05/08 05:44:24;;;;;;;81.35;44.00;;;14.10;99.90;;;;;;5053332;28;20241;-60
2023/05/08 05:46:49;;;;;;;90.38;48.70;;;14.20;99.90;;;;;;5052967;28;20226;-59
2023/05/08 05:49:15;;;;;;;94.50;50.00;;;14.20;99.90;;;;;;5052891;28;20221;-59
2023/05/08 05:51:41;;;;;;;99.65;54.15;;;14.20;99.90;;;;;;5053361;28;20270;-59
2023/05/08 05:54:06;;;;;;;162.38;54.67;;;14.20;99.90;;;;;;5053365;28;20179;-59
2023/05/08 05:56:32;;;;;;;111.38;60.50;;;14.20;99.90;;;;;;5053008;28;20258;-59
2023/05/08 05:58:58;;;;;;;102.68;57.20;;;14.20;99.90;;;;;;5053086;28;20182;-59
2023/05/08 06:01:23;;;;;;;149.82;57.00;;;14.20;99.90;;;;;;5052751;28;20571;-59
2023/05/08 06:03:49;;;;;;;145.27;58.35;;;14.20;99.90;;;;;;5052762;28;20198;-60
2023/05/08 06:06:16;;;;;;;101.15;54.25;;;14.20;99.90;;;;;;5053159;28;20172;-59
2023/05/08 06:08:42;;;;;;;97.18;51.50;;;14.20;99.90;;;;;;5052991;28;20298;-61
2023/05/08 06:11:07;;;;;;;91.18;50.08;;;14.20;99.90;;;;;;5051790;28;20203;-60
2023/05/08 06:13:33;;;;;;;96.00;44.88;;;14.20;99.90;;;;;;5052512;28;20175;-60
2023/05/08 06:15:59;;;;;;;86.18;47.35;;;14.30;99.90;;;;;;5052882;28;20167;-60
2023/05/08 06:18:24;;;;;;;74.63;39.92;;;14.30;99.90;;;;;;5052891;28;20180;-60
2023/05/08 06:20:58;;;;;;;76.38;41.55;;;14.30;99.90;;;;;;5054221;28;20214;-60
2023/05/08 06:23:24;;;;;;;80.32;41.85;;;14.40;99.90;;;;;;5057020;28;20628;-60
2023/05/08 06:25:50;;;;;;;63.45;37.42;;;14.40;99.90;;;;;;5056855;28;20186;-59
2023/05/08 06:28:16;;;;;;;53.10;32.92;;;14.40;99.90;;;;;;5056788;28;20207;-59
2023/05/08 06:30:41;;;;;;;49.85;31.55;;;14.40;99.90;;;;;;5056756;28;20548;-60
2023/05/08 06:33:08;;;;;;;54.42;33.20;;;14.50;99.90;;;;;;5056566;28;20254;-60
2023/05/08 06:35:34;;;;;;;56.00;33.20;;;14.50;99.90;;;;;;5056773;28;20668;-60
2023/05/08 06:38:00;;;;;;;52.08;31.50;;;14.50;99.90;;;;;;5057071;28;20218;-57
2023/05/08 06:40:26;;;;;;;51.20;31.25;;;14.40;99.90;;;;;;5056758;28;20171;-60
2023/05/08 06:42:51;;;;;;;48.13;30.30;;;14.50;99.90;;;;;;5056545;28;20183;-58
2023/05/08 06:45:17;;;;;;;45.90;27.65;;;14.50;99.90;;;;;;5056400;28;20176;-60
2023/05/08 06:47:43;;;;;;;39.50;24.73;;;14.50;99.90;;;;;;5056671;28;20231;-58
2023/05/08 06:50:09;;;;;;;35.35;22.00;;;14.50;99.90;;;;;;5056368;28;20211;-60
2023/05/08 06:52:34;;;;;;;35.67;21.42;;;14.60;99.90;;;;;;5056586;28;20179;-60
2023/05/08 06:55:00;;;;;;;32.22;19.50;;;14.70;99.90;;;;;;5056332;28;20175;-60
2023/05/08 06:57:28;;;;;;;31.60;20.70;;;14.70;99.90;;;;;;5056420;28;20271;-60
2023/05/08 06:59:53;;;;;;;34.97;20.92;;;14.70;99.90;;;;;;5056189;28;20194;-60
2023/05/08 07:02:19;;;;;;;27.83;19.10;;;14.70;99.90;;;;;;5056484;28;20632;-59
2023/05/08 07:04:44;;;;;;;29.83;19.88;;;14.70;99.90;;;;;;5056339;28;20206;-59
2023/05/08 07:07:11;;;;;;;32.33;19.67;;;14.70;99.90;;;;;;5056278;28;20517;-59
2023/05/08 07:09:37;;;;;;;29.52;19.60;;;14.70;99.90;;;;;;5056028;28;20223;-59
2023/05/08 07:12:03;;;;;;;31.52;19.75;;;14.70;99.90;;;;;;5056084;28;20175;-59
2023/05/08 07:14:28;;;;;;;32.92;20.15;;;14.70;99.90;;;;;;5056041;28;20698;-59
2023/05/08 07:16:54;;;;;;;30.42;19.13;;;14.70;99.90;;;;;;5055906;28;20183;-59
2023/05/08 07:19:20;;;;;;;36.05;20.10;;;14.80;99.90;;;;;;5056409;28;20187;-59
2023/05/08 07:21:46;;;;;;;36.35;20.77;;;14.80;99.90;;;;;;5054753;28;20221;-59
2023/05/08 07:24:11;;;;;;;33.72;20.42;;;14.80;99.90;;;;;;5055865;28;20249;-59
2023/05/08 07:26:37;;;;;;;38.58;22.13;;;14.80;99.90;;;;;;5056129;28;20624;-59
2023/05/08 07:29:03;;;;;;;36.60;21.05;;;14.90;99.90;;;;;;5055660;28;20234;-59
2023/05/08 07:31:28;;;;;;;37.90;22.15;;;14.90;99.90;;;;;;5055597;28;20225;-59
2023/05/08 07:33:54;;;;;;;42.53;22.95;;;14.90;99.90;;;;;;5054752;28;20532;-59
2023/05/08 07:36:20;;;;;;;37.38;21.63;;;14.90;99.90;;;;;;5055804;28;20529;-59
2023/05/08 07:38:45;;;;;;;38.17;22.30;;;15.00;99.90;;;;;;5055793;28;20638;-59
2023/05/08 07:41:11;;;;;;;37.90;22.52;;;15.00;99.90;;;;;;5055570;28;20179;-59
2023/05/08 07:43:37;;;;;;;46.13;24.77;;;15.10;99.90;;;;;;5055522;28;20232;-59
2023/05/08 07:46:04;;;;;;;46.05;24.98;;;15.10;99.90;;;;;;5055182;28;20186;-59
2023/05/08 07:48:30;;;;;;;43.65;24.15;;;15.20;99.90;;;;;;5055065;28;20714;-59
2023/05/08 07:50:55;;;;;;;49.88;25.33;;;15.30;99.90;;;;;;5055289;28;20179;-59
2023/05/08 07:53:21;;;;;;;46.30;25.05;;;15.40;99.90;;;;;;5055390;28;20258;-59
2023/05/08 07:55:46;;;;;;;43.58;24.67;;;15.50;99.90;;;;;;5055295;28;20216;-59
2023/05/08 07:58:12;;;;;;;47.05;24.58;;;15.60;99.90;;;;;;5055172;28;20175;-59
2023/05/08 08:00:39;;;;;;;42.85;22.35;;;15.60;99.90;;;;;;5055058;28;20186;-59
2023/05/08 08:03:05;;;;;;;42.22;21.80;;;15.70;99.90;;;;;;5055052;28;20222;-59
2023/05/08 08:05:31;;;;;;;37.95;20.75;;;15.80;99.90;;;;;;5055189;28;20636;-59
2023/05/08 08:07:57;;;;;;;42.13;21.23;;;15.80;99.90;;;;;;5054995;28;20179;-59
2023/05/08 08:10:22;;;;;;;39.72;21.17;;;15.90;99.90;;;;;;5055193;28;20556;-60
2023/05/08 08:12:48;;;;;;;38.35;20.92;;;16.00;99.90;;;;;;5054764;28;20651;-59
2023/05/08 08:15:14;;;;;;;36.10;19.80;;;16.00;99.90;;;;;;5054795;28;20536;-59
2023/05/08 08:17:39;;;;;;;38.35;20.70;;;16.10;99.90;;;;;;5054838;28;20229;-59
2023/05/08 08:20:05;;;;;;;36.97;19.55;;;16.10;99.90;;;;;;5053381;28;20183;-59
2023/05/08 08:22:31;;;;;;;38.30;20.95;;;16.10;99.90;;;;;;5054787;28;20171;-59
2023/05/08 08:24:57;;;;;;;39.33;20.38;;;16.10;99.90;;;;;;5054351;28;20659;-59
2023/05/08 08:27:22;;;;;;;36.95;20.15;;;16.10;99.90;;;;;;5054522;28;20203;-59
2023/05/08 08:29:49;;;;;;;38.78;20.52;;;16.00;99.90;;;;;;5054389;28;20207;-59
2023/05/08 08:32:14;;;;;;;40.38;19.77;;;16.10;99.90;;;;;;5054564;28;20179;-59
2023/05/08 08:34:40;;;;;;;38.28;18.55;;;16.20;99.90;;;;;;5054584;28;20182;-59
2023/05/08 08:37:05;;;;;;;39.95;20.02;;;16.10;99.90;;;;;;5054565;28;20183;-59
2023/05/08 08:39:34;;;;;;;40.35;20.45;;;16.10;99.90;;;;;;5054390;28;20229;-59
2023/05/08 08:42:00;;;;;;;40.65;20.65;;;16.20;99.90;;;;;;5054376;28;20289;-59
2023/05/08 08:44:26;;;;;;;39.33;20.80;;;16.00;99.90;;;;;;5054170;28;20528;-59
2023/05/08 08:46:53;;;;;;;37.65;19.50;;;16.10;99.90;;;;;;5054035;28;20227;-59
2023/05/08 08:49:34;;;;;;;35.85;19.25;;;16.10;99.90;;;;;;5054263;28;20251;-58
2023/05/08 08:52:27;;;;;;;38.67;19.48;;;16.20;99.90;;;;;;5054124;28;20206;-59
2023/05/08 08:54:55;;;;;;;39.53;21.13;;;16.20;99.90;;;;;;5053953;28;20179;-59
2023/05/08 08:57:23;;;;;;;38.63;21.27;;;16.20;99.90;;;;;;5054126;28;20213;-58
2023/05/08 08:59:49;;;;;;;41.35;22.60;;;16.10;99.90;;;;;;5054135;28;20183;-58
2023/05/08 09:02:18;;;;;;;41.45;22.23;;;16.10;99.90;;;;;;5053708;28;20195;-58
2023/05/08 09:04:44;;;;;;;43.13;23.50;;;16.10;99.90;;;;;;5053954;28;20217;-58
2023/05/08 09:07:10;;;;;;;41.95;22.10;;;16.10;99.90;;;;;;5053748;28;20178;-58
2023/05/08 09:09:39;;;;;;;48.30;22.95;;;16.10;99.90;;;;;;5053737;28;20218;-58
2023/05/08 09:12:06;;;;;;;41.80;21.27;;;16.10;99.90;;;;;;5053871;28;20171;-58
2023/05/08 09:14:32;;;;;;;42.60;22.17;;;16.10;99.90;;;;;;5053849;28;20185;-58
2023/05/08 09:16:57;;;;;;;50.45;24.38;;;16.10;99.90;;;;;;5053760;28;20176;-58
2023/05/08 09:19:25;;;;;;;51.17;23.80;;;16.10;99.90;;;;;;5053935;28;20187;-58
2023/05/08 09:21:51;;;;;;;49.70;24.90;;;16.10;99.90;;;;;;5053562;28;20186;-58
2023/05/08 09:24:17;;;;;;;53.35;25.35;;;16.10;99.90;;;;;;5053799;28;20189;-58
2023/05/08 09:26:43;;;;;;;52.05;25.90;;;16.00;99.90;;;;;;5053844;28;20285;-58
2023/05/08 09:29:13;;;;;;;51.65;25.75;;;16.20;99.90;;;;;;5053485;28;20280;-59
2023/05/08 09:31:42;;;;;;;51.70;25.05;;;16.20;99.90;;;;;;5053555;28;20199;-59
2023/05/08 09:34:09;;;;;;;52.08;26.13;;;16.20;99.90;;;;;;5053267;28;20171;-59
2023/05/08 09:36:36;;;;;;;50.20;26.25;;;16.30;99.90;;;;;;5053312;28;20654;-59
2023/05/08 09:39:02;;;;;;;50.78;26.67;;;16.40;99.90;;;;;;5053514;28;20181;-58
2023/05/08 09:41:28;;;;;;;49.67;26.38;;;16.40;99.90;;;;;;5053496;28;20180;-58
2023/05/08 09:44:03;;;;;;;47.88;25.85;;;16.60;99.90;;;;;;5053441;28;20171;-59
2023/05/08 09:46:29;;;;;;;50.58;27.65;;;16.50;99.90;;;;;;5052889;28;20254;-59
2023/05/08 09:48:57;;;;;;;50.58;26.02;;;16.40;99.90;;;;;;5053142;28;20231;-59
2023/05/08 09:51:24;;;;;;;50.63;25.70;;;16.40;99.90;;;;;;5053182;28;20202;-59
2023/05/08 09:53:54;;;;;;;49.63;25.65;;;16.40;99.90;;;;;;5053297;28;20712;-59
2023/05/08 09:56:37;;;;;;;42.15;24.90;;;16.40;99.90;;;;;;5052809;28;20172;-58
2023/05/08 09:59:05;;;;;;;47.45;25.77;;;16.50;99.90;;;;;;5053141;28;20178;-59
2023/05/08 10:01:34;;;;;;;46.88;25.73;;;16.40;99.90;;;;;;5053015;28;20249;-59
2023/05/08 10:04:02;;;;;;;41.22;24.05;;;16.50;99.90;;;;;;5053075;28;20185;-59
2023/05/08 10:06:28;;;;;;;44.20;24.80;;;16.40;99.90;;;;;;5053227;28;20221;-59
2023/05/08 10:09:13;;;;;;;41.17;24.15;;;16.40;99.90;;;;;;5053012;28;20206;-58
2023/05/08 10:11:40;;;;;;;40.63;24.38;;;16.40;99.90;;;;;;5053007;28;20190;-59
2023/05/08 10:14:07;;;;;;;41.83;23.75;;;16.40;99.90;;;;;;5052905;28;20171;-59
2023/05/08 10:16:43;;;;;;;39.92;24.67;;;16.40;99.90;;;;;;5051867;28;20541;-59
2023/05/08 10:19:17;;;;;;;37.85;23.23;;;16.40;99.90;;;;;;5053028;28;20183;-58
2023/05/08 10:21:49;;;;;;;35.60;22.30;;;16.40;99.90;;;;;;5052941;28;20167;-59
2023/05/08 10:24:19;;;;;;;35.90;23.27;;;16.50;99.90;;;;;;5052937;28;20253;-59
2023/05/08 10:27:14;;;;;;;37.00;22.88;;;16.50;99.90;;;;;;5053003;28;20168;-59
2023/05/08 10:29:50;;;;;;;32.58;21.33;;;16.50;99.90;;;;;;5052926;28;20207;-59
2023/05/08 10:32:18;;;;;;;33.70;22.75;;;16.60;99.90;;;;;;5052697;28;20171;-58
2023/05/08 10:34:48;;;;;;;35.03;22.42;;;16.60;99.90;;;;;;5052492;28;20179;-59
2023/05/08 10:37:14;;;;;;;33.83;22.05;;;16.60;99.90;;;;;;5053029;28;20182;-59
2023/05/08 10:39:41;;;;;;;38.45;23.17;;;16.70;99.90;;;;;;5052833;28;20179;-58
2023/05/08 10:42:07;;;;;;;33.33;21.45;;;16.70;99.90;;;;;;5052817;28;20262;-58
2023/05/08 10:44:33;;;;;;;33.30;21.55;;;16.80;99.90;;;;;;5052617;28;20283;-59
2023/05/08 10:47:23;;;;;;;30.98;21.30;;;16.70;99.90;;;;;;5052412;28;20608;-58
2023/05/08 10:50:21;;;;;;;32.50;21.38;;;16.70;99.90;;;;;;5052838;28;20211;-58
2023/05/08 10:52:56;;;;;;;30.38;20.63;;;16.70;99.90;;;;;;5052083;28;20222;-58
2023/05/08 10:55:30;;;;;;;27.58;19.83;;;16.80;99.90;;;;;;5052634;28;20252;-58
2023/05/08 10:58:11;;;;;;;24.33;17.83;;;16.90;99.90;;;;;;5052727;28;20291;-59
2023/05/08 11:00:52;;;;;;;23.30;17.70;;;16.90;99.90;;;;;;5052687;28;20183;-59
2023/05/08 11:03:18;;;;;;;25.60;18.23;;;16.80;99.90;;;;;;5052247;28;20712;-59
2023/05/08 11:05:46;;;;;;;24.92;17.10;;;16.80;99.90;;;;;;5052611;28;20296;-59
2023/05/08 11:08:23;;;;;;;24.50;17.65;;;16.80;99.90;;;;;;5053742;28;20686;-59
2023/05/08 11:11:36;;;;;;;26.02;17.15;;;16.90;99.90;;;;;;5056268;28;20175;-58
2023/05/08 11:14:12;;;;;;;25.17;17.40;;;16.70;99.90;;;;;;5053557;28;20245;-59
2023/05/08 11:16:56;;;;;;;25.30;16.80;;;16.80;99.90;;;;;;5055879;28;20635;-58
2023/05/08 11:19:23;;;;;;;23.08;17.70;;;16.90;99.90;;;;;;5056021;28;20183;-58
2023/05/08 11:22:10;;;;;;;26.42;17.70;;;16.90;99.90;;;;;;5056022;28;20667;-58
2023/05/08 11:24:37;;;;;;;25.08;17.92;;;16.90;99.90;;;;;;5055866;28;20198;-59
2023/05/08 11:27:03;;;;;;;27.50;19.23;;;17.00;99.90;;;;;;5055740;28;20233;-58
2023/05/08 11:29:29;;;;;;;27.40;18.20;;;17.00;99.90;;;;;;5055740;28;20219;-59
2023/05/08 11:31:55;;;;;;;28.60;18.50;;;17.00;99.90;;;;;;5055514;28;20175;-59
2023/05/08 11:34:42;;;;;;;27.30;18.02;;;17.10;99.90;;;;;;5055816;28;20199;-58
2023/05/08 11:37:16;;;;;;;26.02;16.63;;;17.20;99.90;;;;;;5055674;28;20625;-58
2023/05/08 11:39:41;;;;;;;26.00;17.10;;;17.30;99.90;;;;;;5055871;28;20624;-58
2023/05/08 11:42:28;;;;;;;26.70;18.33;;;17.30;99.90;;;;;;5055767;28;20181;-58
2023/05/08 11:45:08;;;;;;;27.00;17.30;;;17.40;99.90;;;;;;5055451;28;20680;-58
2023/05/08 11:47:44;;;;;;;27.65;18.63;;;17.30;99.90;;;;;;5055261;28;20692;-58
2023/05/08 11:50:13;;;;;;;26.25;17.73;;;17.30;99.90;;;;;;5055270;28;20202;-58
2023/05/08 11:52:40;;;;;;;23.85;15.95;;;17.30;99.90;;;;;;5055285;28;20183;-58
2023/05/08 11:55:10;;;;;;;23.90;15.70;;;17.30;99.90;;;;;;5055475;28;20175;-58
2023/05/08 11:57:36;;;;;;;23.17;15.52;;;17.30;99.90;;;;;;5055340;28;20206;-58
2023/05/08 12:00:10;;;;;;;22.58;16.58;;;17.40;99.90;;;;;;5053961;28;20183;-58
2023/05/08 12:02:40;;;;;;;23.60;15.93;;;17.40;99.90;;;;;;5054671;28;20192;-58
2023/05/08 12:05:09;;;;;;;17.50;12.90;;;17.40;99.90;;;;;;5055365;28;20171;-59
2023/05/08 12:07:47;;;;;;;19.33;13.85;;;17.40;99.90;;;;;;5055186;28;20163;-58
2023/05/08 12:10:14;;;;;;;18.60;12.73;;;17.40;99.90;;;;;;5054954;28;20215;-58
2023/05/08 12:12:41;;;;;;;17.63;12.90;;;17.40;99.90;;;;;;5055057;28;20761;-59
2023/05/08 12:15:08;;;;;;;17.00;13.30;;;17.40;99.90;;;;;;5054563;28;20179;-59
2023/05/08 12:17:34;;;;;;;18.55;13.63;;;17.50;99.90;;;;;;5055122;28;20179;-59
2023/05/08 12:20:13;;;;;;;18.13;13.25;;;17.70;99.90;;;;;;5054611;28;20183;-60
2023/05/08 12:22:49;;;;;;;18.20;13.65;;;17.70;99.90;;;;;;5054913;28;20182;-59
2023/05/08 12:25:16;;;;;;;18.15;13.77;;;17.70;99.90;;;;;;5054974;28;20167;-60
2023/05/08 12:27:42;;;;;;;19.25;14.00;;;17.80;99.90;;;;;;5055054;28;20289;-58
2023/05/08 12:30:11;;;;;;;16.63;12.73;;;18.00;99.90;;;;;;5053505;28;20237;-58
2023/05/08 12:32:38;;;;;;;16.33;13.35;;;18.20;99.90;;;;;;5054534;28;20609;-58
2023/05/08 12:35:08;;;;;;;16.45;11.85;;;18.20;99.90;;;;;;5053470;28;20202;-58
2023/05/08 12:37:35;;;;;;;15.93;12.38;;;18.10;99.90;;;;;;5054506;28;20625;-59